Van Lear, Kentucky
Current Conditions -  °F | °C
As of 3:55 AM on Wednesday 28 Jan 2015 (Local Time) from KSJS Reporting Station
Scattered Clouds Scattered Clouds  
Wind Chill: 18°   Ceiling: Unl
Heat Index: 18°   Visibility: 10mi
Dew Point: 14°   Wind: 0mph
Humidity: 85%   Direction: NA
Pressure: 30.24"   Gusts: NA
Location:  37.77°N, 82.76°W
Report Text: KSJS 280855Z AUTO 00000KT 10SM SCT022 M08/M10 A3024 RMK AO2 T10801101
Loading
Personal Weather Stations






























Interactive Weather Map New forecast layout! Learn more

10-Day Weather Forecast

Advertisements
Track Severe Weather on mobile